sensor_id;sensor_type;location;lat;lon;timestamp;temperature;humidity
45643;DHT22;31358;46.008;11.144;2023-11-19T00:02:19;4.90;99.20
45643;DHT22;31358;46.008;11.144;2023-11-19T00:04:45;5.00;99.10
45643;DHT22;31358;46.008;11.144;2023-11-19T00:07:10;5.00;99.20
45643;DHT22;31358;46.008;11.144;2023-11-19T00:09:39;4.80;98.90
45643;DHT22;31358;46.008;11.144;2023-11-19T00:12:05;4.80;98.80
45643;DHT22;31358;46.008;11.144;2023-11-19T00:14:31;4.80;99.00
45643;DHT22;31358;46.008;11.144;2023-11-19T00:16:57;4.90;98.60
45643;DHT22;31358;46.008;11.144;2023-11-19T00:19:22;5.00;98.70
45643;DHT22;31358;46.008;11.144;2023-11-19T00:21:48;5.10;98.00
45643;DHT22;31358;46.008;11.144;2023-11-19T00:24:14;5.20;97.60
45643;DHT22;31358;46.008;11.144;2023-11-19T00:26:42;5.30;97.80
45643;DHT22;31358;46.008;11.144;2023-11-19T00:29:08;5.30;98.40
45643;DHT22;31358;46.008;11.144;2023-11-19T00:31:34;5.50;97.50
45643;DHT22;31358;46.008;11.144;2023-11-19T00:34:00;5.50;98.20
45643;DHT22;31358;46.008;11.144;2023-11-19T00:36:27;5.50;98.00
45643;DHT22;31358;46.008;11.144;2023-11-19T00:38:53;5.50;97.90
45643;DHT22;31358;46.008;11.144;2023-11-19T00:41:19;5.50;98.40
45643;DHT22;31358;46.008;11.144;2023-11-19T00:43:45;5.40;98.70
45643;DHT22;31358;46.008;11.144;2023-11-19T00:46:11;5.40;98.50
45643;DHT22;31358;46.008;11.144;2023-11-19T00:48:37;5.40;98.40
45643;DHT22;31358;46.008;11.144;2023-11-19T00:51:03;5.40;98.90
45643;DHT22;31358;46.008;11.144;2023-11-19T00:53:30;5.50;99.40
45643;DHT22;31358;46.008;11.144;2023-11-19T00:55:56;5.50;99.30
45643;DHT22;31358;46.008;11.144;2023-11-19T00:58:22;5.40;99.20
45643;DHT22;31358;46.008;11.144;2023-11-19T01:00:48;5.30;99.00
45643;DHT22;31358;46.008;11.144;2023-11-19T01:03:13;5.40;99.10
45643;DHT22;31358;46.008;11.144;2023-11-19T01:05:41;5.40;99.10
45643;DHT22;31358;46.008;11.144;2023-11-19T01:08:07;5.20;99.70
45643;DHT22;31358;46.008;11.144;2023-11-19T01:10:33;5.30;99.90
45643;DHT22;31358;46.008;11.144;2023-11-19T01:12:59;5.30;99.50
45643;DHT22;31358;46.008;11.144;2023-11-19T01:15:25;5.30;98.90
45643;DHT22;31358;46.008;11.144;2023-11-19T01:17:51;5.40;98.60
45643;DHT22;31358;46.008;11.144;2023-11-19T01:20:17;5.60;98.60
45643;DHT22;31358;46.008;11.144;2023-11-19T01:22:43;5.60;98.20
45643;DHT22;31358;46.008;11.144;2023-11-19T01:25:09;5.70;98.50
45643;DHT22;31358;46.008;11.144;2023-11-19T01:27:35;5.70;99.70
45643;DHT22;31358;46.008;11.144;2023-11-19T01:30:04;5.60;99.80
45643;DHT22;31358;46.008;11.144;2023-11-19T01:32:31;5.60;99.70
45643;DHT22;31358;46.008;11.144;2023-11-19T01:34:56;5.50;99.90
45643;DHT22;31358;46.008;11.144;2023-11-19T01:37:22;5.40;99.00
45643;DHT22;31358;46.008;11.144;2023-11-19T01:39:48;5.50;99.10
45643;DHT22;31358;46.008;11.144;2023-11-19T01:42:14;5.50;99.20
45643;DHT22;31358;46.008;11.144;2023-11-19T01:44:41;5.50;99.40
45643;DHT22;31358;46.008;11.144;2023-11-19T01:47:07;5.60;99.30
45643;DHT22;31358;46.008;11.144;2023-11-19T01:49:34;5.60;99.40
45643;DHT22;31358;46.008;11.144;2023-11-19T01:52:00;5.50;99.90
45643;DHT22;31358;46.008;11.144;2023-11-19T01:54:27;5.40;99.90
45643;DHT22;31358;46.008;11.144;2023-11-19T01:56:56;5.30;99.90
45643;DHT22;31358;46.008;11.144;2023-11-19T01:59:23;5.30;99.70
45643;DHT22;31358;46.008;11.144;2023-11-19T02:01:53;5.40;99.70
45643;DHT22;31358;46.008;11.144;2023-11-19T02:04:20;5.40;99.80
45643;DHT22;31358;46.008;11.144;2023-11-19T02:06:48;5.20;99.90
45643;DHT22;31358;46.008;11.144;2023-11-19T02:09:15;5.10;99.90
45643;DHT22;31358;46.008;11.144;2023-11-19T02:11:45;5.10;99.90
45643;DHT22;31358;46.008;11.144;2023-11-19T02:14:15;5.10;99.90
45643;DHT22;31358;46.008;11.144;2023-11-19T02:16:41;5.00;99.90
45643;DHT22;31358;46.008;11.144;2023-11-19T02:19:06;5.00;99.90
45643;DHT22;31358;46.008;11.144;2023-11-19T02:21:33;4.90;99.90
45643;DHT22;31358;46.008;11.144;2023-11-19T02:23:59;5.00;99.90
45643;DHT22;31358;46.008;11.144;2023-11-19T02:26:33;4.90;99.90
45643;DHT22;31358;46.008;11.144;2023-11-19T02:29:04;4.90;99.90
45643;DHT22;31358;46.008;11.144;2023-11-19T02:31:29;4.60;99.90
45643;DHT22;31358;46.008;11.144;2023-11-19T02:33:55;4.70;99.90
45643;DHT22;31358;46.008;11.144;2023-11-19T02:36:21;4.80;99.90
45643;DHT22;31358;46.008;11.144;2023-11-19T02:38:47;4.80;99.90
45643;DHT22;31358;46.008;11.144;2023-11-19T02:41:14;4.90;99.90
45643;DHT22;31358;46.008;11.144;2023-11-19T02:43:39;5.00;99.90
45643;DHT22;31358;46.008;11.144;2023-11-19T02:46:05;4.90;99.90
45643;DHT22;31358;46.008;11.144;2023-11-19T02:48:33;4.90;99.80
45643;DHT22;31358;46.008;11.144;2023-11-19T02:51:04;5.00;99.10
45643;DHT22;31358;46.008;11.144;2023-11-19T02:53:30;4.90;99.50
45643;DHT22;31358;46.008;11.144;2023-11-19T02:55:57;4.90;99.10
45643;DHT22;31358;46.008;11.144;2023-11-19T02:58:37;5.10;99.00
45643;DHT22;31358;46.008;11.144;2023-11-19T03:01:04;4.80;99.40
45643;DHT22;31358;46.008;11.144;2023-11-19T03:03:44;4.80;99.20
45643;DHT22;31358;46.008;11.144;2023-11-19T03:06:14;4.80;99.10
45643;DHT22;31358;46.008;11.144;2023-11-19T03:08:40;4.70;99.50
45643;DHT22;31358;46.008;11.144;2023-11-19T03:11:06;4.80;99.30
45643;DHT22;31358;46.008;11.144;2023-11-19T03:13:31;4.80;99.00
45643;DHT22;31358;46.008;11.144;2023-11-19T03:15:57;4.90;99.00
45643;DHT22;31358;46.008;11.144;2023-11-19T03:18:23;4.80;99.10
45643;DHT22;31358;46.008;11.144;2023-11-19T03:20:48;4.80;99.20
45643;DHT22;31358;46.008;11.144;2023-11-19T03:23:15;4.80;99.00
45643;DHT22;31358;46.008;11.144;2023-11-19T03:25:40;4.80;99.10
45643;DHT22;31358;46.008;11.144;2023-11-19T03:28:06;4.70;99.50
45643;DHT22;31358;46.008;11.144;2023-11-19T03:30:32;4.60;99.50
45643;DHT22;31358;46.008;11.144;2023-11-19T03:32:58;4.60;99.50
45643;DHT22;31358;46.008;11.144;2023-11-19T03:35:25;4.30;99.90
45643;DHT22;31358;46.008;11.144;2023-11-19T03:37:51;4.30;99.90
45643;DHT22;31358;46.008;11.144;2023-11-19T03:40:17;4.50;99.40
45643;DHT22;31358;46.008;11.144;2023-11-19T03:42:44;4.60;99.60
45643;DHT22;31358;46.008;11.144;2023-11-19T03:45:10;4.60;98.90
45643;DHT22;31358;46.008;11.144;2023-11-19T03:47:36;4.60;98.90
45643;DHT22;31358;46.008;11.144;2023-11-19T03:50:02;4.60;98.90
45643;DHT22;31358;46.008;11.144;2023-11-19T03:52:28;4.80;98.30
45643;DHT22;31358;46.008;11.144;2023-11-19T03:54:55;4.80;99.10
45643;DHT22;31358;46.008;11.144;2023-11-19T03:57:21;4.60;99.10
45643;DHT22;31358;46.008;11.144;2023-11-19T03:59:47;4.50;99.10
45643;DHT22;31358;46.008;11.144;2023-11-19T04:02:13;4.30;99.80
45643;DHT22;31358;46.008;11.144;2023-11-19T04:04:39;4.10;99.90
45643;DHT22;31358;46.008;11.144;2023-11-19T04:07:05;4.10;99.90
45643;DHT22;31358;46.008;11.144;2023-11-19T04:09:31;4.20;99.90
45643;DHT22;31358;46.008;11.144;2023-11-19T04:11:58;3.90;99.90
45643;DHT22;31358;46.008;11.144;2023-11-19T04:14:24;3.80;99.90
45643;DHT22;31358;46.008;11.144;2023-11-19T04:16:50;3.90;99.90
45643;DHT22;31358;46.008;11.144;2023-11-19T04:19:17;3.90;99.90
45643;DHT22;31358;46.008;11.144;2023-11-19T04:21:42;3.90;99.90
45643;DHT22;31358;46.008;11.144;2023-11-19T04:24:09;4.00;99.90
45643;DHT22;31358;46.008;11.144;2023-11-19T04:26:43;4.10;99.90
45643;DHT22;31358;46.008;11.144;2023-11-19T04:29:11;4.20;99.90
45643;DHT22;31358;46.008;11.144;2023-11-19T04:31:37;4.20;99.60
45643;DHT22;31358;46.008;11.144;2023-11-19T04:34:03;4.20;99.50
45643;DHT22;31358;46.008;11.144;2023-11-19T04:36:29;4.20;99.60
45643;DHT22;31358;46.008;11.144;2023-11-19T04:38:55;4.10;99.90
45643;DHT22;31358;46.008;11.144;2023-11-19T04:41:21;4.00;99.90
45643;DHT22;31358;46.008;11.144;2023-11-19T04:43:46;4.10;99.90
45643;DHT22;31358;46.008;11.144;2023-11-19T04:46:12;4.10;99.80
45643;DHT22;31358;46.008;11.144;2023-11-19T04:48:38;4.00;99.90
45643;DHT22;31358;46.008;11.144;2023-11-19T04:51:07;4.00;99.90
45643;DHT22;31358;46.008;11.144;2023-11-19T04:53:33;3.90;99.90
45643;DHT22;31358;46.008;11.144;2023-11-19T04:55:59;3.80;99.90
45643;DHT22;31358;46.008;11.144;2023-11-19T04:58:24;4.10;99.70
45643;DHT22;31358;46.008;11.144;2023-11-19T05:00:50;4.20;99.60
45643;DHT22;31358;46.008;11.144;2023-11-19T05:03:16;4.20;99.60
45643;DHT22;31358;46.008;11.144;2023-11-19T05:05:41;4.30;99.30
45643;DHT22;31358;46.008;11.144;2023-11-19T05:08:07;4.30;99.20
45643;DHT22;31358;46.008;11.144;2023-11-19T05:10:33;4.40;98.90
45643;DHT22;31358;46.008;11.144;2023-11-19T05:12:58;4.60;98.30
45643;DHT22;31358;46.008;11.144;2023-11-19T05:15:24;4.50;98.70
45643;DHT22;31358;46.008;11.144;2023-11-19T05:17:50;4.40;99.00
45643;DHT22;31358;46.008;11.144;2023-11-19T05:20:15;4.30;99.10
45643;DHT22;31358;46.008;11.144;2023-11-19T05:22:42;4.20;99.20
45643;DHT22;31358;46.008;11.144;2023-11-19T05:25:08;4.30;99.10
45643;DHT22;31358;46.008;11.144;2023-11-19T05:27:35;4.20;99.60
45643;DHT22;31358;46.008;11.144;2023-11-19T05:30:02;4.10;99.90
45643;DHT22;31358;46.008;11.144;2023-11-19T05:32:28;4.10;99.90
45643;DHT22;31358;46.008;11.144;2023-11-19T05:34:53;4.10;99.80
45643;DHT22;31358;46.008;11.144;2023-11-19T05:37:19;4.10;99.90
45643;DHT22;31358;46.008;11.144;2023-11-19T05:39:45;4.00;99.90
45643;DHT22;31358;46.008;11.144;2023-11-19T05:42:11;4.00;99.90
45643;DHT22;31358;46.008;11.144;2023-11-19T05:44:37;3.90;99.80
45643;DHT22;31358;46.008;11.144;2023-11-19T05:47:03;3.80;99.90
45643;DHT22;31358;46.008;11.144;2023-11-19T05:49:29;3.80;99.90
45643;DHT22;31358;46.008;11.144;2023-11-19T05:51:55;3.70;99.90
45643;DHT22;31358;46.008;11.144;2023-11-19T05:54:21;3.70;99.90
45643;DHT22;31358;46.008;11.144;2023-11-19T05:56:50;3.80;99.90
45643;DHT22;31358;46.008;11.144;2023-11-19T05:59:19;3.80;99.90
45643;DHT22;31358;46.008;11.144;2023-11-19T06:01:45;3.80;99.90
45643;DHT22;31358;46.008;11.144;2023-11-19T06:04:11;3.70;99.90
45643;DHT22;31358;46.008;11.144;2023-11-19T06:06:37;3.80;99.90
45643;DHT22;31358;46.008;11.144;2023-11-19T06:09:03;3.90;99.90
45643;DHT22;31358;46.008;11.144;2023-11-19T06:11:29;3.70;99.90
45643;DHT22;31358;46.008;11.144;2023-11-19T06:13:55;3.70;99.90
45643;DHT22;31358;46.008;11.144;2023-11-19T06:16:21;3.60;99.90
45643;DHT22;31358;46.008;11.144;2023-11-19T06:18:47;3.60;99.90
45643;DHT22;31358;46.008;11.144;2023-11-19T06:21:13;3.60;99.90
45643;DHT22;31358;46.008;11.144;2023-11-19T06:23:38;3.70;99.90
45643;DHT22;31358;46.008;11.144;2023-11-19T06:26:04;3.80;99.90
45643;DHT22;31358;46.008;11.144;2023-11-19T06:28:31;3.90;99.90
45643;DHT22;31358;46.008;11.144;2023-11-19T06:30:57;3.80;99.90
45643;DHT22;31358;46.008;11.144;2023-11-19T06:33:24;3.70;99.90
45643;DHT22;31358;46.008;11.144;2023-11-19T06:35:50;3.70;99.90
45643;DHT22;31358;46.008;11.144;2023-11-19T06:38:16;3.70;99.90
45643;DHT22;31358;46.008;11.144;2023-11-19T06:40:41;3.60;99.90
45643;DHT22;31358;46.008;11.144;2023-11-19T06:43:07;3.60;99.90
45643;DHT22;31358;46.008;11.144;2023-11-19T06:45:34;3.60;99.90
45643;DHT22;31358;46.008;11.144;2023-11-19T06:48:02;3.70;99.90
45643;DHT22;31358;46.008;11.144;2023-11-19T06:50:29;3.90;99.90
45643;DHT22;31358;46.008;11.144;2023-11-19T06:52:55;4.00;99.90
45643;DHT22;31358;46.008;11.144;2023-11-19T06:55:20;4.00;99.90
45643;DHT22;31358;46.008;11.144;2023-11-19T06:57:46;4.00;99.90
45643;DHT22;31358;46.008;11.144;2023-11-19T07:00:12;4.10;99.90
45643;DHT22;31358;46.008;11.144;2023-11-19T07:02:38;4.20;99.90
45643;DHT22;31358;46.008;11.144;2023-11-19T07:05:05;4.30;99.80
45643;DHT22;31358;46.008;11.144;2023-11-19T07:07:34;4.50;99.60
45643;DHT22;31358;46.008;11.144;2023-11-19T07:10:01;4.50;99.90
45643;DHT22;31358;46.008;11.144;2023-11-19T07:12:27;4.20;99.90
45643;DHT22;31358;46.008;11.144;2023-11-19T07:14:53;4.20;99.90
45643;DHT22;31358;46.008;11.144;2023-11-19T07:17:20;4.50;99.90
45643;DHT22;31358;46.008;11.144;2023-11-19T07:19:49;4.20;99.90
45643;DHT22;31358;46.008;11.144;2023-11-19T07:22:15;3.90;99.90
45643;DHT22;31358;46.008;11.144;2023-11-19T07:24:41;3.90;99.90
45643;DHT22;31358;46.008;11.144;2023-11-19T07:27:07;3.90;99.90
45643;DHT22;31358;46.008;11.144;2023-11-19T07:29:37;3.90;99.90
45643;DHT22;31358;46.008;11.144;2023-11-19T07:32:03;4.00;99.90
45643;DHT22;31358;46.008;11.144;2023-11-19T07:34:30;3.90;99.90
45643;DHT22;31358;46.008;11.144;2023-11-19T07:36:56;3.90;99.90
45643;DHT22;31358;46.008;11.144;2023-11-19T07:39:28;3.90;99.90
45643;DHT22;31358;46.008;11.144;2023-11-19T07:41:53;3.90;99.90
45643;DHT22;31358;46.008;11.144;2023-11-19T07:44:20;3.90;99.90
45643;DHT22;31358;46.008;11.144;2023-11-19T07:46:46;3.80;99.90
45643;DHT22;31358;46.008;11.144;2023-11-19T07:49:13;3.80;99.90
45643;DHT22;31358;46.008;11.144;2023-11-19T07:51:39;3.90;99.90
45643;DHT22;31358;46.008;11.144;2023-11-19T07:54:05;4.10;99.90
45643;DHT22;31358;46.008;11.144;2023-11-19T07:56:33;4.40;99.90
45643;DHT22;31358;46.008;11.144;2023-11-19T07:58:59;5.00;99.90
45643;DHT22;31358;46.008;11.144;2023-11-19T08:01:25;5.20;99.90
45643;DHT22;31358;46.008;11.144;2023-11-19T08:03:51;5.40;99.80
45643;DHT22;31358;46.008;11.144;2023-11-19T08:06:16;5.20;99.90
45643;DHT22;31358;46.008;11.144;2023-11-19T08:08:42;5.00;99.90
45643;DHT22;31358;46.008;11.144;2023-11-19T08:11:08;5.10;99.90
45643;DHT22;31358;46.008;11.144;2023-11-19T08:13:34;5.10;99.90
45643;DHT22;31358;46.008;11.144;2023-11-19T08:15:59;4.80;99.90
45643;DHT22;31358;46.008;11.144;2023-11-19T08:18:25;5.00;99.90
45643;DHT22;31358;46.008;11.144;2023-11-19T08:20:51;5.40;99.90
45643;DHT22;31358;46.008;11.144;2023-11-19T08:23:20;5.70;99.90
45643;DHT22;31358;46.008;11.144;2023-11-19T08:25:46;5.80;99.00
45643;DHT22;31358;46.008;11.144;2023-11-19T08:28:12;5.90;98.60
45643;DHT22;31358;46.008;11.144;2023-11-19T08:30:38;6.20;98.90
45643;DHT22;31358;46.008;11.144;2023-11-19T08:33:03;6.10;98.80
45643;DHT22;31358;46.008;11.144;2023-11-19T08:35:31;6.10;98.70
45643;DHT22;31358;46.008;11.144;2023-11-19T08:37:57;5.90;99.70
45643;DHT22;31358;46.008;11.144;2023-11-19T08:40:23;5.70;99.50
45643;DHT22;31358;46.008;11.144;2023-11-19T08:42:48;5.90;99.40
45643;DHT22;31358;46.008;11.144;2023-11-19T08:45:14;6.00;98.80
45643;DHT22;31358;46.008;11.144;2023-11-19T08:47:40;6.10;98.90
45643;DHT22;31358;46.008;11.144;2023-11-19T08:50:06;6.20;98.90
45643;DHT22;31358;46.008;11.144;2023-11-19T08:52:32;6.30;99.30
45643;DHT22;31358;46.008;11.144;2023-11-19T08:54:57;6.30;98.40
45643;DHT22;31358;46.008;11.144;2023-11-19T08:57:23;6.40;98.50
45643;DHT22;31358;46.008;11.144;2023-11-19T08:59:49;6.40;98.40
45643;DHT22;31358;46.008;11.144;2023-11-19T09:02:14;6.40;98.50
45643;DHT22;31358;46.008;11.144;2023-11-19T09:04:40;6.20;99.80
45643;DHT22;31358;46.008;11.144;2023-11-19T09:07:06;6.20;99.90
45643;DHT22;31358;46.008;11.144;2023-11-19T09:09:34;6.40;99.30
45643;DHT22;31358;46.008;11.144;2023-11-19T09:12:01;6.50;99.20
45643;DHT22;31358;46.008;11.144;2023-11-19T09:14:26;6.70;99.30
45643;DHT22;31358;46.008;11.144;2023-11-19T09:16:52;6.90;98.70
45643;DHT22;31358;46.008;11.144;2023-11-19T09:19:18;7.00;98.60
45643;DHT22;31358;46.008;11.144;2023-11-19T09:21:44;7.00;98.40
45643;DHT22;31358;46.008;11.144;2023-11-19T09:24:10;6.90;99.30
45643;DHT22;31358;46.008;11.144;2023-11-19T09:26:36;6.70;99.80
45643;DHT22;31358;46.008;11.144;2023-11-19T09:29:02;6.60;99.20
45643;DHT22;31358;46.008;11.144;2023-11-19T09:31:27;6.80;98.40
45643;DHT22;31358;46.008;11.144;2023-11-19T09:33:53;6.80;98.40
45643;DHT22;31358;46.008;11.144;2023-11-19T09:36:19;6.80;98.30
45643;DHT22;31358;46.008;11.144;2023-11-19T09:38:45;6.70;98.00
45643;DHT22;31358;46.008;11.144;2023-11-19T09:41:11;6.80;98.10
45643;DHT22;31358;46.008;11.144;2023-11-19T09:43:42;6.80;98.50
45643;DHT22;31358;46.008;11.144;2023-11-19T09:46:13;6.70;98.90
45643;DHT22;31358;46.008;11.144;2023-11-19T09:48:40;6.70;98.80
45643;DHT22;31358;46.008;11.144;2023-11-19T09:51:11;6.80;98.30
45643;DHT22;31358;46.008;11.144;2023-11-19T09:53:37;6.90;98.00
45643;DHT22;31358;46.008;11.144;2023-11-19T09:56:04;7.00;97.90
45643;DHT22;31358;46.008;11.144;2023-11-19T09:58:31;7.00;98.10
45643;DHT22;31358;46.008;11.144;2023-11-19T10:00:58;7.10;97.50
45643;DHT22;31358;46.008;11.144;2023-11-19T10:03:35;7.20;97.40
45643;DHT22;31358;46.008;11.144;2023-11-19T10:06:05;7.20;97.40
45643;DHT22;31358;46.008;11.144;2023-11-19T10:08:32;7.20;97.90
45643;DHT22;31358;46.008;11.144;2023-11-19T10:10:58;7.30;98.00
45643;DHT22;31358;46.008;11.144;2023-11-19T10:13:28;7.40;97.90
45643;DHT22;31358;46.008;11.144;2023-11-19T10:15:55;7.50;98.20
45643;DHT22;31358;46.008;11.144;2023-11-19T10:18:26;7.80;97.30
45643;DHT22;31358;46.008;11.144;2023-11-19T10:20:52;7.90;98.50
45643;DHT22;31358;46.008;11.144;2023-11-19T10:23:18;7.70;98.70
45643;DHT22;31358;46.008;11.144;2023-11-19T10:25:44;7.70;98.50
45643;DHT22;31358;46.008;11.144;2023-11-19T10:28:10;7.70;97.90
45643;DHT22;31358;46.008;11.144;2023-11-19T10:30:36;7.90;97.40
45643;DHT22;31358;46.008;11.144;2023-11-19T10:33:14;8.00;97.50
45643;DHT22;31358;46.008;11.144;2023-11-19T10:35:58;8.00;97.70
45643;DHT22;31358;46.008;11.144;2023-11-19T10:38:25;8.10;97.80
45643;DHT22;31358;46.008;11.144;2023-11-19T10:40:53;8.20;97.60
45643;DHT22;31358;46.008;11.144;2023-11-19T10:43:20;8.40;96.70
45643;DHT22;31358;46.008;11.144;2023-11-19T10:45:49;8.40;96.50
45643;DHT22;31358;46.008;11.144;2023-11-19T10:48:15;8.40;97.30
45643;DHT22;31358;46.008;11.144;2023-11-19T10:50:42;8.40;97.30
45643;DHT22;31358;46.008;11.144;2023-11-19T10:53:10;8.60;97.60
45643;DHT22;31358;46.008;11.144;2023-11-19T10:55:37;8.60;97.10
45643;DHT22;31358;46.008;11.144;2023-11-19T10:58:07;8.50;96.80
45643;DHT22;31358;46.008;11.144;2023-11-19T11:00:38;8.50;96.80
45643;DHT22;31358;46.008;11.144;2023-11-19T11:03:25;8.60;96.30
45643;DHT22;31358;46.008;11.144;2023-11-19T11:05:53;8.90;96.40
45643;DHT22;31358;46.008;11.144;2023-11-19T11:08:20;8.90;96.30
45643;DHT22;31358;46.008;11.144;2023-11-19T11:10:53;9.00;96.20
45643;DHT22;31358;46.008;11.144;2023-11-19T11:13:19;9.20;96.10
45643;DHT22;31358;46.008;11.144;2023-11-19T11:15:45;9.20;96.20
45643;DHT22;31358;46.008;11.144;2023-11-19T11:18:13;9.40;95.60
45643;DHT22;31358;46.008;11.144;2023-11-19T11:20:39;9.60;95.70
45643;DHT22;31358;46.008;11.144;2023-11-19T11:34:14;9.90;94.80
45643;DHT22;31358;46.008;11.144;2023-11-19T11:37:03;10.00;95.80
45643;DHT22;31358;46.008;11.144;2023-11-19T11:39:32;10.10;95.60
45643;DHT22;31358;46.008;11.144;2023-11-19T11:45:39;10.40;95.40
45643;DHT22;31358;46.008;11.144;2023-11-19T11:48:15;10.30;94.00
45643;DHT22;31358;46.008;11.144;2023-11-19T11:50:54;10.20;94.30
45643;DHT22;31358;46.008;11.144;2023-11-19T11:53:21;10.30;94.30
45643;DHT22;31358;46.008;11.144;2023-11-19T11:58:21;10.30;94.30
45643;DHT22;31358;46.008;11.144;2023-11-19T12:00:51;10.30;93.90
45643;DHT22;31358;46.008;11.144;2023-11-19T12:03:21;10.40;93.80
45643;DHT22;31358;46.008;11.144;2023-11-19T12:05:48;10.40;93.80
45643;DHT22;31358;46.008;11.144;2023-11-19T12:08:18;10.30;93.70
45643;DHT22;31358;46.008;11.144;2023-11-19T12:10:52;10.40;94.60
45643;DHT22;31358;46.008;11.144;2023-11-19T12:13:19;10.50;94.20
45643;DHT22;31358;46.008;11.144;2023-11-19T12:18:27;10.70;94.40
45643;DHT22;31358;46.008;11.144;2023-11-19T12:20:53;10.70;94.30
45643;DHT22;31358;46.008;11.144;2023-11-19T12:23:19;10.70;94.20
45643;DHT22;31358;46.008;11.144;2023-11-19T12:25:44;10.80;94.30
45643;DHT22;31358;46.008;11.144;2023-11-19T12:28:15;10.80;94.30
45643;DHT22;31358;46.008;11.144;2023-11-19T12:30:42;10.90;94.30
45643;DHT22;31358;46.008;11.144;2023-11-19T12:33:09;10.90;94.10
45643;DHT22;31358;46.008;11.144;2023-11-19T12:35:47;10.80;94.80
45643;DHT22;31358;46.008;11.144;2023-11-19T12:38:19;10.80;94.00
45643;DHT22;31358;46.008;11.144;2023-11-19T12:41:05;10.80;94.60
45643;DHT22;31358;46.008;11.144;2023-11-19T12:43:32;10.90;94.50
45643;DHT22;31358;46.008;11.144;2023-11-19T12:45:59;10.90;94.30
45643;DHT22;31358;46.008;11.144;2023-11-19T12:48:25;10.70;94.40
45643;DHT22;31358;46.008;11.144;2023-11-19T12:50:55;10.80;94.30
45643;DHT22;31358;46.008;11.144;2023-11-19T12:53:23;10.90;94.40
45643;DHT22;31358;46.008;11.144;2023-11-19T12:55:49;10.90;94.30
45643;DHT22;31358;46.008;11.144;2023-11-19T12:58:28;10.80;94.10
45643;DHT22;31358;46.008;11.144;2023-11-19T13:01:04;10.70;93.70
45643;DHT22;31358;46.008;11.144;2023-11-19T13:03:35;10.60;94.00
45643;DHT22;31358;46.008;11.144;2023-11-19T13:06:12;10.60;93.80
45643;DHT22;31358;46.008;11.144;2023-11-19T13:08:39;10.70;94.30
45643;DHT22;31358;46.008;11.144;2023-11-19T13:11:05;10.80;94.10
45643;DHT22;31358;46.008;11.144;2023-11-19T13:13:32;10.80;93.90
45643;DHT22;31358;46.008;11.144;2023-11-19T13:16:05;10.80;94.20
45643;DHT22;31358;46.008;11.144;2023-11-19T13:18:34;10.90;94.10
45643;DHT22;31358;46.008;11.144;2023-11-19T13:21:00;11.00;94.30
45643;DHT22;31358;46.008;11.144;2023-11-19T13:23:26;11.10;94.20
45643;DHT22;31358;46.008;11.144;2023-11-19T13:25:51;11.10;93.90
45643;DHT22;31358;46.008;11.144;2023-11-19T13:28:17;11.00;94.10
45643;DHT22;31358;46.008;11.144;2023-11-19T13:30:43;11.00;94.00
45643;DHT22;31358;46.008;11.144;2023-11-19T13:33:08;11.00;94.10
45643;DHT22;31358;46.008;11.144;2023-11-19T13:35:38;11.00;94.60
45643;DHT22;31358;46.008;11.144;2023-11-19T13:38:06;10.90;94.40
45643;DHT22;31358;46.008;11.144;2023-11-19T13:40:34;10.80;94.50
45643;DHT22;31358;46.008;11.144;2023-11-19T13:43:00;10.90;94.60
45643;DHT22;31358;46.008;11.144;2023-11-19T13:45:25;10.90;94.80
45643;DHT22;31358;46.008;11.144;2023-11-19T13:47:51;10.90;94.60
45643;DHT22;31358;46.008;11.144;2023-11-19T13:50:17;11.00;94.90
45643;DHT22;31358;46.008;11.144;2023-11-19T13:52:44;11.00;95.00
45643;DHT22;31358;46.008;11.144;2023-11-19T13:55:12;11.10;94.40
45643;DHT22;31358;46.008;11.144;2023-11-19T13:57:39;11.00;94.80
45643;DHT22;31358;46.008;11.144;2023-11-19T14:00:06;11.00;95.00
45643;DHT22;31358;46.008;11.144;2023-11-19T14:02:36;11.00;95.00
45643;DHT22;31358;46.008;11.144;2023-11-19T14:05:02;11.10;95.00
45643;DHT22;31358;46.008;11.144;2023-11-19T14:07:28;11.00;95.10
45643;DHT22;31358;46.008;11.144;2023-11-19T14:09:54;10.90;94.90
45643;DHT22;31358;46.008;11.144;2023-11-19T14:12:19;10.80;95.00
45643;DHT22;31358;46.008;11.144;2023-11-19T14:14:45;10.80;94.90
45643;DHT22;31358;46.008;11.144;2023-11-19T14:17:11;10.90;95.30
45643;DHT22;31358;46.008;11.144;2023-11-19T14:19:37;11.00;95.20
45643;DHT22;31358;46.008;11.144;2023-11-19T14:22:05;11.00;95.00
45643;DHT22;31358;46.008;11.144;2023-11-19T14:24:31;11.00;95.00
45643;DHT22;31358;46.008;11.144;2023-11-19T14:26:56;10.90;95.00
45643;DHT22;31358;46.008;11.144;2023-11-19T14:29:24;10.90;94.70
45643;DHT22;31358;46.008;11.144;2023-11-19T14:31:52;10.80;94.90
45643;DHT22;31358;46.008;11.144;2023-11-19T14:34:19;10.80;95.00
45643;DHT22;31358;46.008;11.144;2023-11-19T14:36:45;10.70;95.10
45643;DHT22;31358;46.008;11.144;2023-11-19T14:39:11;10.70;94.70
45643;DHT22;31358;46.008;11.144;2023-11-19T14:41:36;10.50;95.30
45643;DHT22;31358;46.008;11.144;2023-11-19T14:44:02;10.20;95.70
45643;DHT22;31358;46.008;11.144;2023-11-19T14:46:29;10.10;95.90
45643;DHT22;31358;46.008;11.144;2023-11-19T14:48:54;10.00;97.00
45643;DHT22;31358;46.008;11.144;2023-11-19T14:51:20;9.90;97.40
45643;DHT22;31358;46.008;11.144;2023-11-19T14:53:47;9.70;98.00
45643;DHT22;31358;46.008;11.144;2023-11-19T14:56:13;9.70;97.40
45643;DHT22;31358;46.008;11.144;2023-11-19T14:58:39;9.60;97.20
45643;DHT22;31358;46.008;11.144;2023-11-19T15:01:05;9.50;97.10
45643;DHT22;31358;46.008;11.144;2023-11-19T15:03:31;9.40;97.20
45643;DHT22;31358;46.008;11.144;2023-11-19T15:05:58;9.30;96.90
45643;DHT22;31358;46.008;11.144;2023-11-19T15:08:23;9.30;96.70
45643;DHT22;31358;46.008;11.144;2023-11-19T15:10:49;9.20;97.00
45643;DHT22;31358;46.008;11.144;2023-11-19T15:13:15;9.10;96.70
45643;DHT22;31358;46.008;11.144;2023-11-19T15:15:41;9.20;96.60
45643;DHT22;31358;46.008;11.144;2023-11-19T15:18:07;9.00;97.40
45643;DHT22;31358;46.008;11.144;2023-11-19T15:20:33;8.90;97.70
45643;DHT22;31358;46.008;11.144;2023-11-19T15:22:59;8.80;97.50
45643;DHT22;31358;46.008;11.144;2023-11-19T15:25:24;8.90;96.90
45643;DHT22;31358;46.008;11.144;2023-11-19T15:27:50;8.80;97.00
45643;DHT22;31358;46.008;11.144;2023-11-19T15:30:16;8.80;96.90
45643;DHT22;31358;46.008;11.144;2023-11-19T15:32:42;8.70;96.80
45643;DHT22;31358;46.008;11.144;2023-11-19T15:35:12;8.70;97.10
45643;DHT22;31358;46.008;11.144;2023-11-19T15:37:38;8.60;97.00
45643;DHT22;31358;46.008;11.144;2023-11-19T15:40:07;10.40;99.50
45643;DHT22;31358;46.008;11.144;2023-11-19T15:42:36;9.20;96.90
45643;DHT22;31358;46.008;11.144;2023-11-19T15:45:02;8.90;97.60
45643;DHT22;31358;46.008;11.144;2023-11-19T15:47:32;8.80;97.30